sensor_id;sensor_type;location;lat;lon;timestamp;pressure;altitude;pressure_sealevel;temperature;humidity
13934;BME280;7039;52.168;9.866;2023-03-31T00:06:27;99516.81;;;12.84;80.53
13934;BME280;7039;52.168;9.866;2023-03-31T00:12:08;99507.16;;;12.85;80.44
13934;BME280;7039;52.168;9.866;2023-03-31T00:14:43;99510.28;;;12.90;79.94
13934;BME280;7039;52.168;9.866;2023-03-31T00:19:50;99499.19;;;12.75;79.75
13934;BME280;7039;52.168;9.866;2023-03-31T00:30:38;99494.16;;;12.61;79.83
13934;BME280;7039;52.168;9.866;2023-03-31T00:36:12;99491.16;;;12.54;79.71
13934;BME280;7039;52.168;9.866;2023-03-31T01:01:41;99450.78;;;12.69;78.31
13934;BME280;7039;52.168;9.866;2023-03-31T01:06:55;99445.50;;;12.58;78.56
13934;BME280;7039;52.168;9.866;2023-03-31T01:14:46;99421.94;;;12.47;78.46
13934;BME280;7039;52.168;9.866;2023-03-31T01:39:28;99408.53;;;12.85;77.46
13934;BME280;7039;52.168;9.866;2023-03-31T01:42:05;99403.81;;;12.79;77.21
13934;BME280;7039;52.168;9.866;2023-03-31T01:49:56;99385.09;;;12.50;77.45
13934;BME280;7039;52.168;9.866;2023-03-31T01:58:01;99371.66;;;12.54;77.92
13934;BME280;7039;52.168;9.866;2023-03-31T02:15:42;99348.91;;;12.32;78.56
13934;BME280;7039;52.168;9.866;2023-03-31T02:18:26;99346.44;;;12.42;78.36
13934;BME280;7039;52.168;9.866;2023-03-31T02:26:27;99322.56;;;12.47;78.27
13934;BME280;7039;52.168;9.866;2023-03-31T02:45:01;99297.69;;;12.52;77.24
13934;BME280;7039;52.168;9.866;2023-03-31T02:47:44;99306.50;;;12.51;77.47
13934;BME280;7039;52.168;9.866;2023-03-31T03:00:48;99290.47;;;12.56;77.16
13934;BME280;7039;52.168;9.866;2023-03-31T03:03:30;99287.22;;;12.30;78.09
13934;BME280;7039;52.168;9.866;2023-03-31T03:06:14;99286.41;;;12.29;78.18
13934;BME280;7039;52.168;9.866;2023-03-31T03:09:27;99278.56;;;12.29;78.08
13934;BME280;7039;52.168;9.866;2023-03-31T03:22:24;99255.81;;;12.07;79.03
13934;BME280;7039;52.168;9.866;2023-03-31T03:24:52;99261.38;;;11.91;79.57
13934;BME280;7039;52.168;9.866;2023-03-31T03:30:17;99251.69;;;12.16;79.05
13934;BME280;7039;52.168;9.866;2023-03-31T03:32:48;99245.00;;;12.12;78.84
13934;BME280;7039;52.168;9.866;2023-03-31T03:37:57;99233.97;;;11.97;79.25
13934;BME280;7039;52.168;9.866;2023-03-31T03:40:24;99230.56;;;11.84;79.87
13934;BME280;7039;52.168;9.866;2023-03-31T03:42:50;99216.75;;;11.70;80.23
13934;BME280;7039;52.168;9.866;2023-03-31T03:45:17;99216.06;;;11.80;79.60
13934;BME280;7039;52.168;9.866;2023-03-31T03:47:43;99207.16;;;11.82;79.79
13934;BME280;7039;52.168;9.866;2023-03-31T03:50:10;99198.72;;;11.67;80.21
13934;BME280;7039;52.168;9.866;2023-03-31T03:52:38;99196.69;;;11.71;80.51
13934;BME280;7039;52.168;9.866;2023-03-31T03:55:06;99193.56;;;11.90;79.71
13934;BME280;7039;52.168;9.866;2023-03-31T03:57:33;99186.44;;;12.03;79.20
13934;BME280;7039;52.168;9.866;2023-03-31T03:59:59;99190.91;;;11.79;79.98
13934;BME280;7039;52.168;9.866;2023-03-31T04:02:26;99189.34;;;11.76;80.03
13934;BME280;7039;52.168;9.866;2023-03-31T04:04:53;99181.38;;;11.66;80.61
13934;BME280;7039;52.168;9.866;2023-03-31T04:07:20;99174.84;;;11.61;80.76
13934;BME280;7039;52.168;9.866;2023-03-31T04:09:46;99169.47;;;11.62;81.04
13934;BME280;7039;52.168;9.866;2023-03-31T04:12:14;99158.81;;;11.65;81.18
13934;BME280;7039;52.168;9.866;2023-03-31T04:14:40;99155.97;;;11.68;80.66
13934;BME280;7039;52.168;9.866;2023-03-31T04:17:07;99150.75;;;11.68;80.86
13934;BME280;7039;52.168;9.866;2023-03-31T04:19:34;99147.75;;;11.62;80.83
13934;BME280;7039;52.168;9.866;2023-03-31T04:22:02;99135.44;;;11.64;80.81
13934;BME280;7039;52.168;9.866;2023-03-31T04:24:29;99134.34;;;11.66;80.50
13934;BME280;7039;52.168;9.866;2023-03-31T04:26:58;99130.88;;;11.90;80.23
13934;BME280;7039;52.168;9.866;2023-03-31T04:29:26;99120.28;;;11.91;80.08
13934;BME280;7039;52.168;9.866;2023-03-31T04:31:52;99117.56;;;12.04;79.31
13934;BME280;7039;52.168;9.866;2023-03-31T04:34:23;99104.22;;;12.07;79.01
13934;BME280;7039;52.168;9.866;2023-03-31T04:36:59;99105.31;;;12.05;79.05
13934;BME280;7039;52.168;9.866;2023-03-31T04:39:27;99102.94;;;12.02;79.30
13934;BME280;7039;52.168;9.866;2023-03-31T04:41:55;99096.03;;;12.01;79.10
13934;BME280;7039;52.168;9.866;2023-03-31T04:44:22;99080.38;;;11.89;79.56
13934;BME280;7039;52.168;9.866;2023-03-31T04:46:50;99078.78;;;12.21;78.89
13934;BME280;7039;52.168;9.866;2023-03-31T04:49:16;99069.50;;;12.28;78.38
13934;BME280;7039;52.168;9.866;2023-03-31T04:51:43;99074.88;;;12.26;78.44
13934;BME280;7039;52.168;9.866;2023-03-31T04:54:09;99057.97;;;12.30;78.25
13934;BME280;7039;52.168;9.866;2023-03-31T04:56:36;99048.06;;;12.02;78.86
13934;BME280;7039;52.168;9.866;2023-03-31T04:59:03;99050.88;;;12.10;79.45
13934;BME280;7039;52.168;9.866;2023-03-31T05:01:29;99050.03;;;12.21;79.19
13934;BME280;7039;52.168;9.866;2023-03-31T05:03:59;99047.88;;;12.26;79.27
13934;BME280;7039;52.168;9.866;2023-03-31T05:06:25;99035.91;;;12.12;79.84
13934;BME280;7039;52.168;9.866;2023-03-31T05:08:52;99041.03;;;12.14;79.59
13934;BME280;7039;52.168;9.866;2023-03-31T05:11:18;99045.19;;;12.16;79.46
13934;BME280;7039;52.168;9.866;2023-03-31T05:13:45;99045.16;;;12.27;78.84
13934;BME280;7039;52.168;9.866;2023-03-31T05:16:12;99053.03;;;12.16;79.39
13934;BME280;7039;52.168;9.866;2023-03-31T05:18:40;99044.81;;;12.21;79.19
13934;BME280;7039;52.168;9.866;2023-03-31T05:21:13;99043.91;;;12.10;79.60
13934;BME280;7039;52.168;9.866;2023-03-31T05:23:40;99039.41;;;11.90;80.33
13934;BME280;7039;52.168;9.866;2023-03-31T05:26:07;99035.94;;;12.01;79.76
13934;BME280;7039;52.168;9.866;2023-03-31T05:28:34;99033.47;;;11.99;79.98
13934;BME280;7039;52.168;9.866;2023-03-31T05:31:02;99030.25;;;11.96;80.36
13934;BME280;7039;52.168;9.866;2023-03-31T05:33:29;99033.94;;;12.04;80.15
13934;BME280;7039;52.168;9.866;2023-03-31T05:35:56;99033.47;;;11.99;79.63
13934;BME280;7039;52.168;9.866;2023-03-31T05:38:26;99036.16;;;12.20;79.58
13934;BME280;7039;52.168;9.866;2023-03-31T05:40:55;99029.38;;;12.18;79.45
13934;BME280;7039;52.168;9.866;2023-03-31T05:43:22;99022.78;;;11.91;80.28
13934;BME280;7039;52.168;9.866;2023-03-31T05:45:48;99021.13;;;11.90;80.79
13934;BME280;7039;52.168;9.866;2023-03-31T05:48:15;99023.13;;;11.64;81.90
13934;BME280;7039;52.168;9.866;2023-03-31T05:50:41;99026.34;;;11.90;81.27
13934;BME280;7039;52.168;9.866;2023-03-31T05:53:08;99012.31;;;11.80;81.33
13934;BME280;7039;52.168;9.866;2023-03-31T05:55:36;99002.69;;;11.69;82.42
13934;BME280;7039;52.168;9.866;2023-03-31T05:58:03;98989.78;;;11.67;82.99
13934;BME280;7039;52.168;9.866;2023-03-31T06:00:29;98981.97;;;11.56;83.67
13934;BME280;7039;52.168;9.866;2023-03-31T06:02:57;98979.09;;;11.70;83.04
13934;BME280;7039;52.168;9.866;2023-03-31T06:05:24;98984.41;;;11.80;82.99
13934;BME280;7039;52.168;9.866;2023-03-31T06:07:52;98979.34;;;11.90;82.40
13934;BME280;7039;52.168;9.866;2023-03-31T06:10:18;98988.53;;;12.05;81.73
13934;BME280;7039;52.168;9.866;2023-03-31T06:12:47;98978.00;;;11.84;82.61
13934;BME280;7039;52.168;9.866;2023-03-31T06:15:13;98977.34;;;12.15;81.46
13934;BME280;7039;52.168;9.866;2023-03-31T06:17:40;98971.41;;;12.12;81.38
13934;BME280;7039;52.168;9.866;2023-03-31T06:20:07;98968.06;;;12.22;81.10
13934;BME280;7039;52.168;9.866;2023-03-31T06:22:34;98965.47;;;12.22;81.23
13934;BME280;7039;52.168;9.866;2023-03-31T06:25:00;98953.00;;;12.14;81.25
13934;BME280;7039;52.168;9.866;2023-03-31T06:27:27;98961.25;;;11.98;81.70
13934;BME280;7039;52.168;9.866;2023-03-31T06:29:55;98959.69;;;12.07;81.84
13934;BME280;7039;52.168;9.866;2023-03-31T06:32:21;98967.44;;;11.86;82.65
13934;BME280;7039;52.168;9.866;2023-03-31T06:34:48;98964.47;;;11.79;83.62
13934;BME280;7039;52.168;9.866;2023-03-31T06:37:14;98951.97;;;11.83;83.91
13934;BME280;7039;52.168;9.866;2023-03-31T06:39:41;98955.56;;;11.82;83.88
13934;BME280;7039;52.168;9.866;2023-03-31T06:42:08;98961.16;;;11.88;84.44
13934;BME280;7039;52.168;9.866;2023-03-31T06:44:35;98957.47;;;11.91;84.57
13934;BME280;7039;52.168;9.866;2023-03-31T06:47:04;98953.41;;;11.76;86.16
13934;BME280;7039;52.168;9.866;2023-03-31T06:49:31;98957.31;;;12.04;85.07
13934;BME280;7039;52.168;9.866;2023-03-31T06:51:57;98962.31;;;11.84;86.41
13934;BME280;7039;52.168;9.866;2023-03-31T06:54:24;98954.50;;;11.73;87.15
13934;BME280;7039;52.168;9.866;2023-03-31T06:56:50;98936.47;;;11.70;87.09
13934;BME280;7039;52.168;9.866;2023-03-31T06:59:17;98942.75;;;11.79;87.03
13934;BME280;7039;52.168;9.866;2023-03-31T07:01:43;98943.78;;;11.76;87.23
13934;BME280;7039;52.168;9.866;2023-03-31T07:04:11;98936.91;;;11.98;86.68
13934;BME280;7039;52.168;9.866;2023-03-31T07:06:38;98921.34;;;11.85;86.85
13934;BME280;7039;52.168;9.866;2023-03-31T07:09:04;98916.81;;;11.87;86.91
13934;BME280;7039;52.168;9.866;2023-03-31T07:11:31;98905.47;;;11.77;86.96
13934;BME280;7039;52.168;9.866;2023-03-31T07:13:57;98913.94;;;12.01;86.45
13934;BME280;7039;52.168;9.866;2023-03-31T07:16:24;98915.13;;;12.08;86.04
13934;BME280;7039;52.168;9.866;2023-03-31T07:18:50;98909.91;;;12.08;86.20
13934;BME280;7039;52.168;9.866;2023-03-31T07:21:20;98912.75;;;12.05;85.82
13934;BME280;7039;52.168;9.866;2023-03-31T07:23:46;98914.06;;;12.11;86.14
13934;BME280;7039;52.168;9.866;2023-03-31T07:26:13;98904.84;;;11.96;86.11
13934;BME280;7039;52.168;9.866;2023-03-31T07:28:39;98904.84;;;11.96;86.14
13934;BME280;7039;52.168;9.866;2023-03-31T07:31:12;98896.59;;;12.11;85.77
13934;BME280;7039;52.168;9.866;2023-03-31T07:33:39;98894.50;;;12.26;84.81
13934;BME280;7039;52.168;9.866;2023-03-31T07:36:06;98903.94;;;12.39;84.67
13934;BME280;7039;52.168;9.866;2023-03-31T07:38:34;98894.38;;;12.28;84.62
13934;BME280;7039;52.168;9.866;2023-03-31T07:41:01;98889.13;;;12.28;84.56
13934;BME280;7039;52.168;9.866;2023-03-31T07:43:27;98882.31;;;12.37;83.82
13934;BME280;7039;52.168;9.866;2023-03-31T07:45:54;98882.13;;;12.28;84.06
13934;BME280;7039;52.168;9.866;2023-03-31T07:48:20;98870.28;;;12.45;83.78
13934;BME280;7039;52.168;9.866;2023-03-31T07:50:47;98867.44;;;12.37;83.61
13934;BME280;7039;52.168;9.866;2023-03-31T07:53:15;98858.59;;;12.49;82.72
13934;BME280;7039;52.168;9.866;2023-03-31T07:55:43;98857.13;;;12.57;83.12
13934;BME280;7039;52.168;9.866;2023-03-31T07:58:10;98850.44;;;12.43;82.91
13934;BME280;7039;52.168;9.866;2023-03-31T08:00:37;98848.44;;;12.35;83.19
13934;BME280;7039;52.168;9.866;2023-03-31T08:03:03;98850.56;;;12.41;82.53
13934;BME280;7039;52.168;9.866;2023-03-31T08:05:30;98842.09;;;12.80;82.18
13934;BME280;7039;52.168;9.866;2023-03-31T08:07:58;98834.94;;;12.82;81.88
13934;BME280;7039;52.168;9.866;2023-03-31T08:10:25;98818.84;;;12.86;80.91
13934;BME280;7039;52.168;9.866;2023-03-31T08:12:54;98835.16;;;12.69;81.56
13934;BME280;7039;52.168;9.866;2023-03-31T08:15:21;98831.97;;;12.96;80.54
13934;BME280;7039;52.168;9.866;2023-03-31T08:17:48;98821.47;;;12.86;80.24
13934;BME280;7039;52.168;9.866;2023-03-31T08:20:15;98812.06;;;13.24;79.38
13934;BME280;7039;52.168;9.866;2023-03-31T08:22:41;98802.78;;;13.01;79.43
13934;BME280;7039;52.168;9.866;2023-03-31T08:25:08;98804.38;;;13.32;78.92
13934;BME280;7039;52.168;9.866;2023-03-31T08:27:36;98800.13;;;13.31;78.89
13934;BME280;7039;52.168;9.866;2023-03-31T08:30:06;98798.63;;;13.48;77.79
13934;BME280;7039;52.168;9.866;2023-03-31T08:32:33;98795.88;;;13.40;77.86
13934;BME280;7039;52.168;9.866;2023-03-31T08:35:01;98787.22;;;12.99;78.75
13934;BME280;7039;52.168;9.866;2023-03-31T08:37:28;98788.88;;;13.00;78.91
13934;BME280;7039;52.168;9.866;2023-03-31T08:39:55;98778.84;;;13.15;77.88
13934;BME280;7039;52.168;9.866;2023-03-31T08:42:30;98785.13;;;13.63;77.60
13934;BME280;7039;52.168;9.866;2023-03-31T08:45:02;98775.88;;;13.39;77.27
13934;BME280;7039;52.168;9.866;2023-03-31T08:47:33;98767.09;;;12.90;78.86
13934;BME280;7039;52.168;9.866;2023-03-31T08:50:04;98771.75;;;12.96;79.21
13934;BME280;7039;52.168;9.866;2023-03-31T08:52:35;98763.88;;;12.77;80.19
13934;BME280;7039;52.168;9.866;2023-03-31T08:55:06;98768.44;;;12.94;80.38
13934;BME280;7039;52.168;9.866;2023-03-31T08:57:39;98751.91;;;12.84;80.60
13934;BME280;7039;52.168;9.866;2023-03-31T09:00:13;98756.56;;;12.80;80.96
13934;BME280;7039;52.168;9.866;2023-03-31T09:02:48;98751.34;;;12.80;81.46
13934;BME280;7039;52.168;9.866;2023-03-31T09:05:28;98745.13;;;12.71;81.65
13934;BME280;7039;52.168;9.866;2023-03-31T09:08:05;98742.31;;;12.53;82.65
13934;BME280;7039;52.168;9.866;2023-03-31T09:10:42;98743.38;;;12.51;82.87
13934;BME280;7039;52.168;9.866;2023-03-31T09:13:32;98755.25;;;12.55;83.02
13934;BME280;7039;52.168;9.866;2023-03-31T09:16:08;98751.94;;;12.53;83.42
13934;BME280;7039;52.168;9.866;2023-03-31T09:18:40;98740.72;;;12.31;84.78
13934;BME280;7039;52.168;9.866;2023-03-31T09:21:16;98738.53;;;12.37;85.52
13934;BME280;7039;52.168;9.866;2023-03-31T09:23:45;98751.91;;;12.43;85.39
13934;BME280;7039;52.168;9.866;2023-03-31T09:26:21;98734.28;;;12.15;86.14
13934;BME280;7039;52.168;9.866;2023-03-31T09:28:51;98732.91;;;11.89;87.88
13934;BME280;7039;52.168;9.866;2023-03-31T09:31:19;98734.34;;;11.82;88.21
13934;BME280;7039;52.168;9.866;2023-03-31T09:33:50;98719.66;;;12.02;88.18
13934;BME280;7039;52.168;9.866;2023-03-31T09:36:19;98718.19;;;11.88;88.86
13934;BME280;7039;52.168;9.866;2023-03-31T09:38:47;98716.94;;;11.71;89.10
13934;BME280;7039;52.168;9.866;2023-03-31T09:41:15;98722.69;;;11.86;89.13
13934;BME280;7039;52.168;9.866;2023-03-31T09:43:43;98723.69;;;11.53;90.66
13934;BME280;7039;52.168;9.866;2023-03-31T09:46:15;98730.09;;;11.81;90.45
13934;BME280;7039;52.168;9.866;2023-03-31T09:48:51;98724.72;;;11.62;89.98
13934;BME280;7039;52.168;9.866;2023-03-31T09:51:23;98719.47;;;11.41;90.97
13934;BME280;7039;52.168;9.866;2023-03-31T09:53:55;98719.31;;;11.54;91.38
13934;BME280;7039;52.168;9.866;2023-03-31T09:56:45;98713.47;;;11.29;90.93
13934;BME280;7039;52.168;9.866;2023-03-31T09:59:15;98725.53;;;11.41;90.81
13934;BME280;7039;52.168;9.866;2023-03-31T10:01:43;98720.25;;;11.53;90.40
13934;BME280;7039;52.168;9.866;2023-03-31T10:04:18;98708.41;;;11.48;89.31
13934;BME280;7039;52.168;9.866;2023-03-31T10:06:46;98707.56;;;11.48;89.29
13934;BME280;7039;52.168;9.866;2023-03-31T10:09:14;98701.91;;;11.43;89.52
13934;BME280;7039;52.168;9.866;2023-03-31T10:11:57;98708.78;;;11.44;89.30
13934;BME280;7039;52.168;9.866;2023-03-31T10:14:32;98715.28;;;11.49;88.98
13934;BME280;7039;52.168;9.866;2023-03-31T10:17:04;98709.00;;;11.52;88.43
13934;BME280;7039;52.168;9.866;2023-03-31T10:19:34;98719.22;;;11.65;87.44
13934;BME280;7039;52.168;9.866;2023-03-31T10:22:04;98714.09;;;11.75;87.01
13934;BME280;7039;52.168;9.866;2023-03-31T10:24:38;98713.66;;;11.69;86.04
13934;BME280;7039;52.168;9.866;2023-03-31T10:27:15;98715.88;;;11.74;86.07
13934;BME280;7039;52.168;9.866;2023-03-31T10:29:44;98717.66;;;11.74;85.47
13934;BME280;7039;52.168;9.866;2023-03-31T10:32:17;98714.59;;;11.68;86.12
13934;BME280;7039;52.168;9.866;2023-03-31T10:34:47;98710.91;;;11.50;85.06
13934;BME280;7039;52.168;9.866;2023-03-31T10:37:17;98724.53;;;11.75;85.45
13934;BME280;7039;52.168;9.866;2023-03-31T10:39:45;98698.97;;;11.36;85.31
13934;BME280;7039;52.168;9.866;2023-03-31T10:42:19;98719.94;;;11.67;86.63
13934;BME280;7039;52.168;9.866;2023-03-31T10:44:47;98723.72;;;11.74;86.10
13934;BME280;7039;52.168;9.866;2023-03-31T10:47:19;98719.06;;;11.78;85.64
13934;BME280;7039;52.168;9.866;2023-03-31T10:49:49;98709.44;;;11.78;85.94
13934;BME280;7039;52.168;9.866;2023-03-31T10:52:20;98711.66;;;11.83;86.47
13934;BME280;7039;52.168;9.866;2023-03-31T10:54:50;98703.28;;;11.58;85.73
13934;BME280;7039;52.168;9.866;2023-03-31T10:57:22;98698.44;;;11.54;87.66
13934;BME280;7039;52.168;9.866;2023-03-31T11:00:07;98697.19;;;11.58;87.41
13934;BME280;7039;52.168;9.866;2023-03-31T11:03:14;98704.25;;;11.67;87.46
13934;BME280;7039;52.168;9.866;2023-03-31T11:05:57;98701.28;;;11.71;86.87
13934;BME280;7039;52.168;9.866;2023-03-31T11:08:41;98691.97;;;11.58;87.60
13934;BME280;7039;52.168;9.866;2023-03-31T11:11:24;98690.06;;;11.60;87.26
13934;BME280;7039;52.168;9.866;2023-03-31T11:13:58;98691.69;;;11.72;87.91
13934;BME280;7039;52.168;9.866;2023-03-31T11:16:32;98700.00;;;11.87;87.29
13934;BME280;7039;52.168;9.866;2023-03-31T11:19:10;98689.22;;;11.80;87.50
13934;BME280;7039;52.168;9.866;2023-03-31T11:21:48;98695.22;;;11.71;87.18
13934;BME280;7039;52.168;9.866;2023-03-31T11:24:30;98690.16;;;11.90;86.94
13934;BME280;7039;52.168;9.866;2023-03-31T11:27:11;98686.78;;;12.00;87.24
13934;BME280;7039;52.168;9.866;2023-03-31T11:29:52;98683.47;;;11.98;86.46
13934;BME280;7039;52.168;9.866;2023-03-31T11:32:35;98677.31;;;12.08;85.45
13934;BME280;7039;52.168;9.866;2023-03-31T11:35:25;98697.09;;;12.32;86.20
13934;BME280;7039;52.168;9.866;2023-03-31T11:38:18;98699.56;;;12.74;85.39
13934;BME280;7039;52.168;9.866;2023-03-31T11:40:59;98685.00;;;12.81;84.97
13934;BME280;7039;52.168;9.866;2023-03-31T11:43:39;98684.00;;;12.63;85.46
13934;BME280;7039;52.168;9.866;2023-03-31T11:46:17;98685.25;;;12.78;84.68
13934;BME280;7039;52.168;9.866;2023-03-31T11:48:56;98681.97;;;12.86;83.76
13934;BME280;7039;52.168;9.866;2023-03-31T11:51:27;98687.50;;;13.02;83.92
13934;BME280;7039;52.168;9.866;2023-03-31T11:53:58;98669.53;;;12.68;83.33
13934;BME280;7039;52.168;9.866;2023-03-31T11:56:34;98666.22;;;12.57;84.30
13934;BME280;7039;52.168;9.866;2023-03-31T11:59:02;98673.72;;;13.20;83.52
13934;BME280;7039;52.168;9.866;2023-03-31T12:01:33;98662.13;;;12.93;83.70
13934;BME280;7039;52.168;9.866;2023-03-31T12:04:05;98670.63;;;12.66;83.75
13934;BME280;7039;52.168;9.866;2023-03-31T12:06:39;98659.75;;;12.61;85.45
13934;BME280;7039;52.168;9.866;2023-03-31T12:09:12;98658.38;;;12.66;84.26
13934;BME280;7039;52.168;9.866;2023-03-31T12:11:46;98658.00;;;12.90;84.30
13934;BME280;7039;52.168;9.866;2023-03-31T12:14:24;98649.28;;;12.61;84.57
13934;BME280;7039;52.168;9.866;2023-03-31T12:16:55;98647.25;;;12.74;84.45
13934;BME280;7039;52.168;9.866;2023-03-31T12:19:26;98648.50;;;12.89;83.57
13934;BME280;7039;52.168;9.866;2023-03-31T12:21:57;98636.78;;;12.74;83.17
13934;BME280;7039;52.168;9.866;2023-03-31T12:24:29;98619.38;;;12.44;84.04
13934;BME280;7039;52.168;9.866;2023-03-31T12:27:03;98634.94;;;12.45;84.18
13934;BME280;7039;52.168;9.866;2023-03-31T12:29:35;98634.03;;;12.85;83.69
13934;BME280;7039;52.168;9.866;2023-03-31T12:32:06;98630.59;;;13.04;82.26
13934;BME280;7039;52.168;9.866;2023-03-31T12:34:41;98618.19;;;12.96;81.05
13934;BME280;7039;52.168;9.866;2023-03-31T12:37:34;98630.59;;;13.04;81.74
13934;BME280;7039;52.168;9.866;2023-03-31T12:40:17;98616.69;;;12.84;82.40
13934;BME280;7039;52.168;9.866;2023-03-31T12:43:16;98612.00;;;12.68;82.54
13934;BME280;7039;52.168;9.866;2023-03-31T12:45:49;98603.31;;;12.78;82.01
13934;BME280;7039;52.168;9.866;2023-03-31T12:48:43;98604.13;;;12.78;83.97
13934;BME280;7039;52.168;9.866;2023-03-31T12:51:22;98598.66;;;12.91;81.57
13934;BME280;7039;52.168;9.866;2023-03-31T12:54:07;98591.34;;;13.04;80.99
13934;BME280;7039;52.168;9.866;2023-03-31T12:57:06;98590.53;;;13.04;80.92
13934;BME280;7039;52.168;9.866;2023-03-31T12:59:39;98594.91;;;13.42;80.33
13934;BME280;7039;52.168;9.866;2023-03-31T13:02:25;98577.69;;;13.30;79.23
13934;BME280;7039;52.168;9.866;2023-03-31T13:04:51;98579.72;;;13.46;79.86
13934;BME280;7039;52.168;9.866;2023-03-31T13:07:36;98565.84;;;13.35;79.75
13934;BME280;7039;52.168;9.866;2023-03-31T13:10:26;98574.03;;;13.70;79.16
13934;BME280;7039;52.168;9.866;2023-03-31T13:13:01;98573.47;;;13.66;78.07
13934;BME280;7039;52.168;9.866;2023-03-31T13:15:28;98571.72;;;14.22;77.53
13934;BME280;7039;52.168;9.866;2023-03-31T13:17:57;98559.69;;;13.92;76.32
13934;BME280;7039;52.168;9.866;2023-03-31T13:20:31;98553.25;;;13.86;76.46
13934;BME280;7039;52.168;9.866;2023-03-31T13:23:02;98566.94;;;14.08;77.17
13934;BME280;7039;52.168;9.866;2023-03-31T13:25:48;98571.81;;;14.48;76.13
13934;BME280;7039;52.168;9.866;2023-03-31T13:28:40;98570.03;;;14.85;74.81
13934;BME280;7039;52.168;9.866;2023-03-31T13:31:08;98562.78;;;14.60;74.03
13934;BME280;7039;52.168;9.866;2023-03-31T13:33:50;98563.19;;;14.38;74.56
13934;BME280;7039;52.168;9.866;2023-03-31T13:36:46;98558.94;;;14.55;74.60
13934;BME280;7039;52.168;9.866;2023-03-31T13:39:34;98561.00;;;14.61;73.32
13934;BME280;7039;52.168;9.866;2023-03-31T13:42:22;98550.81;;;14.58;73.55
13934;BME280;7039;52.168;9.866;2023-03-31T13:45:03;98545.13;;;14.53;73.81
13934;BME280;7039;52.168;9.866;2023-03-31T13:47:48;98546.38;;;14.94;72.75
13934;BME280;7039;52.168;9.866;2023-03-31T13:50:30;98551.06;;;14.91;72.25
13934;BME280;7039;52.168;9.866;2023-03-31T13:53:06;98548.88;;;15.04;72.57
13934;BME280;7039;52.168;9.866;2023-03-31T13:55:55;98550.97;;;15.00;71.37
13934;BME280;7039;52.168;9.866;2023-03-31T13:58:37;98548.31;;;15.18;72.60
13934;BME280;7039;52.168;9.866;2023-03-31T14:01:52;98558.38;;;15.49;70.78
13934;BME280;7039;52.168;9.866;2023-03-31T14:04:39;98560.72;;;16.37;69.36
13934;BME280;7039;52.168;9.866;2023-03-31T14:07:15;98552.41;;;16.75;69.06
13934;BME280;7039;52.168;9.866;2023-03-31T14:09:45;98551.13;;;16.95;65.93
13934;BME280;7039;52.168;9.866;2023-03-31T14:12:22;98555.06;;;17.16;66.79
13934;BME280;7039;52.168;9.866;2023-03-31T14:14:55;98549.38;;;17.68;65.23
13934;BME280;7039;52.168;9.866;2023-03-31T14:17:26;98550.69;;;17.64;64.63
13934;BME280;7039;52.168;9.866;2023-03-31T14:20:14;98544.00;;;18.01;62.80
13934;BME280;7039;52.168;9.866;2023-03-31T14:22:54;98525.44;;;17.14;64.60
13934;BME280;7039;52.168;9.866;2023-03-31T14:25:32;98523.13;;;17.19;65.24
13934;BME280;7039;52.168;9.866;2023-03-31T14:28:13;98529.03;;;16.63;66.53
13934;BME280;7039;52.168;9.866;2023-03-31T14:30:50;98520.34;;;15.96;68.67
13934;BME280;7039;52.168;9.866;2023-03-31T14:33:31;98512.84;;;15.40;71.65
13934;BME280;7039;52.168;9.866;2023-03-31T14:36:03;98521.88;;;15.38;72.04
13934;BME280;7039;52.168;9.866;2023-03-31T14:38:33;98523.88;;;15.18;73.36
13934;BME280;7039;52.168;9.866;2023-03-31T14:41:00;98534.75;;;14.61;74.06
13934;BME280;7039;52.168;9.866;2023-03-31T14:43:29;98528.16;;;14.57;76.42
13934;BME280;7039;52.168;9.866;2023-03-31T14:45:58;98519.09;;;13.78;80.69
13934;BME280;7039;52.168;9.866;2023-03-31T14:48:27;98531.66;;;13.37;81.51
13934;BME280;7039;52.168;9.866;2023-03-31T14:50:56;98536.50;;;13.32;82.57
13934;BME280;7039;52.168;9.866;2023-03-31T14:53:24;98528.47;;;13.24;83.91
13934;BME280;7039;52.168;9.866;2023-03-31T14:55:54;98524.41;;;12.92;84.70
13934;BME280;7039;52.168;9.866;2023-03-31T14:58:25;98527.28;;;12.99;83.90
13934;BME280;7039;52.168;9.866;2023-03-31T15:00:53;98527.19;;;12.90;82.79
13934;BME280;7039;52.168;9.866;2023-03-31T15:03:20;98527.81;;;13.12;81.91
13934;BME280;7039;52.168;9.866;2023-03-31T15:05:48;98528.78;;;13.01;80.33
13934;BME280;7039;52.168;9.866;2023-03-31T15:08:17;98534.69;;;13.32;79.57
13934;BME280;7039;52.168;9.866;2023-03-31T15:10:48;98528.25;;;13.92;77.71
13934;BME280;7039;52.168;9.866;2023-03-31T15:13:19;98529.59;;;14.06;76.03
13934;BME280;7039;52.168;9.866;2023-03-31T15:15:46;98518.75;;;13.91;74.28
13934;BME280;7039;52.168;9.866;2023-03-31T15:18:14;98523.16;;;14.18;75.77
13934;BME280;7039;52.168;9.866;2023-03-31T15:20:42;98530.47;;;14.60;74.84
13934;BME280;7039;52.168;9.866;2023-03-31T15:23:20;98520.94;;;13.95;73.93
13934;BME280;7039;52.168;9.866;2023-03-31T15:25:51;98512.84;;;13.61;74.79
13934;BME280;7039;52.168;9.866;2023-03-31T15:28:19;98515.34;;;13.81;74.79
13934;BME280;7039;52.168;9.866;2023-03-31T15:30:48;98507.47;;;13.53;74.58
13934;BME280;7039;52.168;9.866;2023-03-31T15:33:18;98521.31;;;13.26;75.17
13934;BME280;7039;52.168;9.866;2023-03-31T15:35:47;98502.16;;;13.25;74.92
13934;BME280;7039;52.168;9.866;2023-03-31T15:38:14;98508.72;;;13.02;75.29
13934;BME280;7039;52.168;9.866;2023-03-31T15:40:46;98517.66;;;12.99;75.80
13934;BME280;7039;52.168;9.866;2023-03-31T15:43:16;98518.50;;;13.00;76.64
13934;BME280;7039;52.168;9.866;2023-03-31T15:45:49;98523.97;;;12.96;76.50
13934;BME280;7039;52.168;9.866;2023-03-31T15:48:21;98522.75;;;13.01;77.03
13934;BME280;7039;52.168;9.866;2023-03-31T15:50:49;98526.75;;;13.05;76.10
13934;BME280;7039;52.168;9.866;2023-03-31T15:53:24;98525.94;;;12.94;76.68
13934;BME280;7039;52.168;9.866;2023-03-31T15:55:54;98517.81;;;12.98;76.80
13934;BME280;7039;52.168;9.866;2023-03-31T15:58:54;98522.59;;;13.22;75.79
13934;BME280;7039;52.168;9.866;2023-03-31T16:01:21;98523.28;;;13.14;75.89
13934;BME280;7039;52.168;9.866;2023-03-31T16:03:51;98513.50;;;13.16;76.22
13934;BME280;7039;52.168;9.866;2023-03-31T16:06:26;98518.56;;;13.37;75.63